Time;durP1;ratioP1;P1;durP2;ratioP2;P2;SDS_P1;SDS_P2;PMS_P1;PMS_P2;Temp;Humidity;BMP_temperature;BMP_pressure;BME280_temperature;BME280_humidity;BME280_pressure;Samples;Min_cycle;Max_cycle;Signal;HPM_P1;HPM_P2
2023/09/19 00:00:06;;;;;;;;;;;26.00;80.30;;;;;;5107195;27;43041;-80
2023/09/19 00:02:33;;;;;;;;;;;25.70;79.60;;;;;;5106334;27;43438;-86
2023/09/19 00:04:58;;;;;;;;;;;25.80;80.20;;;;;;5106771;27;43046;-82
2023/09/19 00:07:24;;;;;;;;;;;25.80;79.80;;;;;;5107102;27;43003;-83
2023/09/19 00:09:49;;;;;;;;;;;25.80;79.90;;;;;;5106654;27;42802;-80
2023/09/19 00:12:15;;;;;;;;;;;25.80;80.20;;;;;;5105767;27;43016;-82
2023/09/19 00:14:41;;;;;;;;;;;25.70;79.50;;;;;;5106471;27;42814;-80
2023/09/19 00:17:08;;;;;;;;;;;25.90;79.60;;;;;;5105863;27;44041;-78
2023/09/19 00:19:34;;;;;;;;;;;25.50;79.60;;;;;;5106525;27;43255;-78
2023/09/19 00:21:59;;;;;;;;;;;25.80;79.80;;;;;;5105687;27;43102;-78
2023/09/19 00:24:25;;;;;;;;;;;26.00;79.60;;;;;;5106211;27;43027;-82
2023/09/19 00:26:50;;;;;;;;;;;25.90;79.60;;;;;;5103986;27;42857;-77
2023/09/19 00:29:16;;;;;;;;;;;25.90;78.90;;;;;;5093899;27;43070;-78
2023/09/19 00:31:45;;;;;;;;;;;25.90;79.00;;;;;;5107204;27;42864;-85
2023/09/19 00:34:10;;;;;;;;;;;26.00;77.20;;;;;;5106544;27;42989;-84
2023/09/19 00:36:38;;;;;;;;;;;25.90;79.60;;;;;;5106369;27;43449;-78
2023/09/19 00:39:05;;;;;;;;;;;26.10;79.60;;;;;;5087982;27;42976;-78
2023/09/19 00:41:31;;;;;;;;;;;26.00;79.20;;;;;;5105623;27;43674;-79
2023/09/19 00:43:57;;;;;;;;;;;25.90;78.70;;;;;;5105610;27;44208;-77
2023/09/19 00:46:22;;;;;;;;;;;25.60;79.00;;;;;;5106273;27;42939;-78
2023/09/19 00:48:49;;;;;;;;;;;25.90;78.70;;;;;;5105744;27;42999;-78
2023/09/19 00:51:18;;;;;;;;;;;25.70;78.90;;;;;;5106489;27;43378;-78
2023/09/19 00:53:46;;;;;;;;;;;25.80;78.90;;;;;;5106026;27;42858;-78
2023/09/19 00:56:11;;;;;;;;;;;25.70;78.90;;;;;;5087025;27;44706;-78
2023/09/19 00:58:39;;;;;;;;;;;25.90;79.10;;;;;;5105463;27;42888;-82
2023/09/19 01:01:06;;;;;;;;;;;25.70;78.80;;;;;;5105902;27;43774;-79
2023/09/19 01:03:33;;;;;;;;;;;25.70;78.90;;;;;;5104163;27;42852;-78
2023/09/19 01:06:02;;;;;;;;;;;25.60;78.70;;;;;;5105702;27;42961;-78
2023/09/19 01:08:29;;;;;;;;;;;25.70;76.50;;;;;;5105172;27;43160;-78
2023/09/19 01:11:18;;;;;;;;;;;25.70;78.20;;;;;;5104959;27;43772;-78
2023/09/19 01:13:50;;;;;;;;;;;25.90;76.70;;;;;;5105743;27;43187;-78
2023/09/19 01:16:33;;;;;;;;;;;25.80;76.30;;;;;;5106031;27;43460;-78
2023/09/19 01:19:07;;;;;;;;;;;25.80;76.10;;;;;;5105026;27;43078;-78
2023/09/19 01:21:34;;;;;;;;;;;25.80;76.20;;;;;;5106045;27;43701;-78
2023/09/19 01:24:11;;;;;;;;;;;25.60;78.50;;;;;;5105956;27;42877;-79
2023/09/19 01:26:55;;;;;;;;;;;25.70;76.40;;;;;;5104596;27;43428;-78
2023/09/19 01:29:44;;;;;;;;;;;25.40;76.30;;;;;;5105693;27;42922;-78
2023/09/19 01:32:13;;;;;;;;;;;25.80;76.50;;;;;;5103376;27;43732;-77
2023/09/19 01:34:49;;;;;;;;;;;25.60;78.70;;;;;;5104948;27;43214;-78
2023/09/19 01:37:20;;;;;;;;;;;25.60;76.20;;;;;;5105271;27;43788;-78
2023/09/19 01:39:49;;;;;;;;;;;25.70;77.90;;;;;;5104691;27;43088;-78
2023/09/19 01:42:24;;;;;;;;;;;25.50;76.00;;;;;;5105221;27;43550;-78
2023/09/19 01:45:10;;;;;;;;;;;25.60;76.00;;;;;;5104291;27;43043;-78
2023/09/19 01:47:37;;;;;;;;;;;25.60;78.20;;;;;;5044264;27;43443;-78
2023/09/19 01:50:23;;;;;;;;;;;25.80;78.20;;;;;;5105406;27;42944;-81
2023/09/19 01:52:54;;;;;;;;;;;25.60;78.20;;;;;;5102878;27;43809;-78
2023/09/19 01:55:22;;;;;;;;;;;25.50;77.90;;;;;;5103469;27;60806;-78
2023/09/19 01:57:59;;;;;;;;;;;25.60;78.20;;;;;;5103807;27;42995;-79
2023/09/19 02:00:26;;;;;;;;;;;25.40;75.40;;;;;;5104037;27;42968;-78
2023/09/19 02:02:52;;;;;;;;;;;25.40;78.00;;;;;;5103690;27;43126;-80
2023/09/19 02:05:24;;;;;;;;;;;25.60;78.00;;;;;;5102828;27;43058;-80
2023/09/19 02:07:50;;;;;;;;;;;25.60;75.40;;;;;;5105135;27;43648;-77
2023/09/19 02:10:17;;;;;;;;;;;25.60;78.10;;;;;;5104194;27;42943;-78
2023/09/19 02:12:42;;;;;;;;;;;25.50;77.70;;;;;;5104331;27;42940;-78
2023/09/19 02:15:09;;;;;;;;;;;25.40;77.40;;;;;;5103819;27;43004;-78
2023/09/19 02:17:34;;;;;;;;;;;25.40;77.00;;;;;;5104406;27;43584;-78
2023/09/19 02:20:00;;;;;;;;;;;25.40;77.40;;;;;;5103675;27;43006;-76
2023/09/19 02:22:26;;;;;;;;;;;25.40;77.30;;;;;;5104080;27;43301;-83
2023/09/19 02:24:53;;;;;;;;;;;25.50;77.30;;;;;;5103569;27;43027;-86
2023/09/19 02:27:19;;;;;;;;;;;25.50;77.40;;;;;;5103756;27;44384;-85
2023/09/19 02:29:44;;;;;;;;;;;25.20;77.30;;;;;;5103461;27;44000;-84
2023/09/19 02:32:10;;;;;;;;;;;25.20;77.20;;;;;;5104147;27;43012;-79
2023/09/19 02:34:36;;;;;;;;;;;25.40;77.50;;;;;;5103982;27;42915;-84
2023/09/19 02:37:04;;;;;;;;;;;25.40;77.50;;;;;;5104167;27;42964;-85
2023/09/19 02:39:30;;;;;;;;;;;25.40;77.40;;;;;;5103517;27;42914;-85
2023/09/19 02:41:56;;;;;;;;;;;25.60;77.70;;;;;;5103668;27;43027;-83
2023/09/19 02:44:23;;;;;;;;;;;25.40;77.30;;;;;;5104043;27;42963;-86
2023/09/19 02:46:49;;;;;;;;;;;25.30;76.90;;;;;;5103636;27;42945;-85
2023/09/19 02:49:15;;;;;;;;;;;25.50;77.40;;;;;;5104072;27;43115;-84
2023/09/19 02:51:40;;;;;;;;;;;25.40;77.30;;;;;;5104148;27;43023;-84
2023/09/19 02:54:06;;;;;;;;;;;25.40;77.40;;;;;;5103994;27;43332;-84
2023/09/19 02:56:32;;;;;;;;;;;25.10;77.00;;;;;;5103185;27;43604;-86
2023/09/19 02:58:57;;;;;;;;;;;25.30;77.00;;;;;;5103670;27;42922;-84
2023/09/19 03:01:23;;;;;;;;;;;24.80;76.80;;;;;;5099896;27;43690;-86
2023/09/19 03:03:49;;;;;;;;;;;25.30;77.10;;;;;;5103589;27;43082;-84
2023/09/19 03:06:15;;;;;;;;;;;25.40;77.00;;;;;;5103128;27;43479;-84
2023/09/19 03:08:42;;;;;;;;;;;25.20;76.80;;;;;;5103577;27;42821;-83
2023/09/19 03:11:09;;;;;;;;;;;25.40;76.80;;;;;;5101499;27;43946;-78
2023/09/19 03:13:37;;;;;;;;;;;25.30;76.90;;;;;;5104249;27;42980;-87
2023/09/19 03:16:05;;;;;;;;;;;25.30;76.30;;;;;;5103703;27;43892;-86
2023/09/19 03:18:31;;;;;;;;;;;25.40;76.20;;;;;;5102550;27;42923;-86
2023/09/19 03:20:59;;;;;;;;;;;25.30;76.30;;;;;;5102829;27;43064;-86
2023/09/19 03:23:26;;;;;;;;;;;25.30;76.40;;;;;;5103082;27;42992;-86
2023/09/19 03:25:52;;;;;;;;;;;25.20;76.30;;;;;;5084820;27;44698;-86
2023/09/19 03:28:18;;;;;;;;;;;25.20;76.00;;;;;;5104478;27;42937;-85
2023/09/19 03:30:43;;;;;;;;;;;25.30;76.10;;;;;;5103529;27;43463;-86
2023/09/19 03:33:11;;;;;;;;;;;25.30;76.00;;;;;;5106208;27;42863;-80
2023/09/19 03:35:38;;;;;;;;;;;25.40;76.20;;;;;;5093949;27;43450;-87
2023/09/19 03:38:04;;;;;;;;;;;25.40;75.90;;;;;;5106895;27;43089;-86
2023/09/19 03:40:29;;;;;;;;;;;25.40;75.30;;;;;;5107157;27;42928;-86
2023/09/19 03:42:55;;;;;;;;;;;25.30;75.70;;;;;;5107050;27;42940;-86
2023/09/19 03:45:20;;;;;;;;;;;25.20;75.80;;;;;;5106192;27;43603;-86
2023/09/19 03:47:49;;;;;;;;;;;25.40;76.20;;;;;;5106999;27;42965;-86
2023/09/19 03:50:17;;;;;;;;;;;25.40;74.00;;;;;;5105801;27;43491;-81
2023/09/19 03:52:43;;;;;;;;;;;25.40;75.60;;;;;;5103555;27;42938;-86
2023/09/19 03:55:09;;;;;;;;;;;25.30;74.90;;;;;;5106691;27;43527;-87
2023/09/19 03:57:35;;;;;;;;;;;25.40;75.50;;;;;;5106825;27;43016;-87
2023/09/19 04:00:01;;;;;;;;;;;25.30;75.80;;;;;;5106553;27;42960;-86
2023/09/19 04:02:32;;;;;;;;;;;25.40;75.60;;;;;;5104690;27;42974;-86
2023/09/19 04:04:58;;;;;;;;;;;25.30;75.30;;;;;;5107519;27;42858;-84
2023/09/19 04:07:25;;;;;;;;;;;25.40;75.30;;;;;;5106153;27;42930;-85
2023/09/19 04:09:53;;;;;;;;;;;25.40;75.00;;;;;;5106282;27;43739;-86
2023/09/19 04:12:18;;;;;;;;;;;25.40;74.50;;;;;;5105594;27;43084;-78
2023/09/19 04:14:44;;;;;;;;;;;25.30;74.40;;;;;;5103289;27;43463;-79
2023/09/19 04:17:10;;;;;;;;;;;25.40;75.50;;;;;;5104934;27;43110;-78
2023/09/19 04:19:36;;;;;;;;;;;25.30;74.80;;;;;;5084638;27;44282;-77
2023/09/19 04:22:02;;;;;;;;;;;25.40;75.50;;;;;;5105815;27;42943;-78
2023/09/19 04:24:28;;;;;;;;;;;25.30;75.20;;;;;;5105624;27;43369;-78
2023/09/19 04:26:53;;;;;;;;;;;25.20;74.60;;;;;;5105814;27;42949;-78
2023/09/19 04:29:20;;;;;;;;;;;25.20;75.50;;;;;;5106299;27;43900;-77
2023/09/19 04:31:45;;;;;;;;;;;25.20;75.10;;;;;;5087582;27;43099;-77
2023/09/19 04:34:17;;;;;;;;;;;25.20;74.90;;;;;;5105700;27;42941;-78
2023/09/19 04:36:43;;;;;;;;;;;25.20;75.60;;;;;;5105973;27;43242;-78
2023/09/19 04:39:10;;;;;;;;;;;25.30;75.10;;;;;;5104651;27;44374;-78
2023/09/19 04:41:38;;;;;;;;;;;25.10;75.40;;;;;;5100602;27;43106;-78
2023/09/19 04:44:05;;;;;;;;;;;25.10;75.50;;;;;;5079815;27;43589;-78
2023/09/19 04:46:30;;;;;;;;;;;25.10;75.20;;;;;;5105609;27;43027;-78
2023/09/19 04:48:56;;;;;;;;;;;25.20;75.30;;;;;;5101408;27;43074;-78
2023/09/19 04:51:21;;;;;;;;;;;25.00;75.30;;;;;;5096218;27;43008;-79
2023/09/19 04:53:47;;;;;;;;;;;25.10;74.90;;;;;;5102700;27;42866;-78
2023/09/19 04:56:13;;;;;;;;;;;25.10;75.80;;;;;;5104609;27;42928;-81
2023/09/19 04:58:39;;;;;;;;;;;25.00;76.20;;;;;;5097797;27;42923;-78
2023/09/19 05:01:04;;;;;;;;;;;25.00;75.60;;;;;;5104891;27;42968;-78
2023/09/19 05:03:30;;;;;;;;;;;25.10;75.20;;;;;;5084977;27;44610;-77
2023/09/19 05:05:56;;;;;;;;;;;25.10;74.60;;;;;;5105953;27;43163;-79
2023/09/19 05:08:22;;;;;;;;;;;25.20;75.30;;;;;;5105213;27;43502;-80
2023/09/19 05:10:48;;;;;;;;;;;23.40;74.10;;;;;;5105457;27;43036;-80
2023/09/19 05:13:14;;;;;;;;;;;25.20;75.40;;;;;;5103627;27;42970;-83
2023/09/19 05:15:40;;;;;;;;;;;25.40;75.60;;;;;;5104275;27;43048;-79
2023/09/19 05:18:06;;;;;;;;;;;25.30;75.20;;;;;;5097534;27;43413;-77
2023/09/19 05:20:37;;;;;;;;;;;25.10;75.10;;;;;;5083799;27;43422;-78
2023/09/19 05:23:05;;;;;;;;;;;25.40;75.50;;;;;;5099855;27;42972;-79
2023/09/19 05:25:32;;;;;;;;;;;25.20;75.30;;;;;;5105362;27;42868;-80
2023/09/19 05:27:58;;;;;;;;;;;25.20;75.70;;;;;;5090885;27;43826;-81
2023/09/19 05:30:27;;;;;;;;;;;25.10;76.10;;;;;;5097782;27;42965;-78
2023/09/19 05:32:52;;;;;;;;;;;25.00;77.00;;;;;;5104831;27;43079;-80
2023/09/19 05:35:18;;;;;;;;;;;25.00;76.80;;;;;;5104537;27;43051;-79
2023/09/19 05:37:44;;;;;;;;;;;25.00;76.60;;;;;;5097782;27;43652;-81
2023/09/19 05:40:11;;;;;;;;;;;25.00;76.40;;;;;;5103666;27;42912;-79
2023/09/19 05:42:39;;;;;;;;;;;24.90;75.90;;;;;;5102329;27;43882;-79
2023/09/19 05:45:06;;;;;;;;;;;24.90;76.70;;;;;;5104486;27;42977;-80
2023/09/19 05:47:32;;;;;;;;;;;25.00;76.10;;;;;;5098953;27;43595;-80
2023/09/19 05:49:57;;;;;;;;;;;24.50;76.70;;;;;;5104243;27;42997;-80
2023/09/19 05:52:23;;;;;;;;;;;24.70;77.00;;;;;;5102109;27;43454;-81
2023/09/19 05:54:49;;;;;;;;;;;24.90;77.00;;;;;;5101604;27;42944;-81
2023/09/19 05:57:15;;;;;;;;;;;24.90;77.30;;;;;;5104233;27;43299;-80
2023/09/19 05:59:42;;;;;;;;;;;24.80;77.50;;;;;;5104239;27;43025;-80
2023/09/19 06:02:09;;;;;;;;;;;24.90;77.80;;;;;;5103592;27;42955;-80
2023/09/19 06:04:35;;;;;;;;;;;24.80;77.70;;;;;;5103270;27;42910;-81
2023/09/19 06:07:01;;;;;;;;;;;24.90;77.30;;;;;;5099760;27;43364;-80
2023/09/19 06:09:27;;;;;;;;;;;24.90;77.80;;;;;;5105503;27;42997;-80
2023/09/19 06:11:53;;;;;;;;;;;24.90;77.20;;;;;;5104972;27;44682;-80
2023/09/19 06:14:19;;;;;;;;;;;24.80;77.50;;;;;;5101635;27;43051;-80
2023/09/19 06:16:45;;;;;;;;;;;25.00;77.80;;;;;;5103017;27;43503;-79
2023/09/19 06:19:10;;;;;;;;;;;25.00;77.40;;;;;;5086914;27;43048;-79
2023/09/19 06:21:36;;;;;;;;;;;25.00;78.20;;;;;;5104867;27;43876;-77
2023/09/19 06:24:02;;;;;;;;;;;25.10;77.70;;;;;;5104777;27;42980;-79
2023/09/19 06:26:28;;;;;;;;;;;25.10;77.60;;;;;;5094608;27;42988;-78
2023/09/19 06:28:55;;;;;;;;;;;25.00;77.60;;;;;;5095596;27;43053;-78
2023/09/19 06:31:22;;;;;;;;;;;24.90;77.80;;;;;;5098675;27;44780;-78
2023/09/19 06:33:48;;;;;;;;;;;25.50;78.30;;;;;;5105110;27;42969;-78
2023/09/19 06:36:13;;;;;;;;;;;25.10;78.30;;;;;;5101598;27;43605;-78
2023/09/19 06:38:40;;;;;;;;;;;25.10;78.20;;;;;;5104187;27;42935;-78
2023/09/19 06:41:09;;;;;;;;;;;25.00;78.30;;;;;;5104433;27;43570;-77
2023/09/19 06:43:35;;;;;;;;;;;25.00;78.30;;;;;;5101563;27;43022;-78
2023/09/19 06:46:01;;;;;;;;;;;25.00;78.30;;;;;;5098362;27;42942;-77
2023/09/19 06:48:27;;;;;;;;;;;25.10;78.40;;;;;;5104512;27;43252;-77
2023/09/19 06:50:55;;;;;;;;;;;25.10;78.40;;;;;;5104244;27;42944;-77
2023/09/19 06:53:23;;;;;;;;;;;25.10;78.40;;;;;;5103863;27;43047;-77
2023/09/19 06:55:49;;;;;;;;;;;25.00;78.30;;;;;;5104587;27;42979;-78
2023/09/19 06:58:16;;;;;;;;;;;25.10;78.00;;;;;;5103929;27;42904;-78
2023/09/19 07:00:42;;;;;;;;;;;25.10;78.20;;;;;;5102340;27;44070;-79
2023/09/19 07:03:08;;;;;;;;;;;25.20;78.70;;;;;;5100016;27;43021;-79
2023/09/19 07:05:36;;;;;;;;;;;25.30;78.40;;;;;;5106020;27;43458;-78
2023/09/19 07:08:01;;;;;;;;;;;25.10;78.00;;;;;;5105522;27;42880;-79
2023/09/19 07:10:28;;;;;;;;;;;25.20;77.70;;;;;;5106041;27;42891;-78
2023/09/19 07:12:57;;;;;;;;;;;25.20;77.90;;;;;;5101693;27;43802;-78
2023/09/19 07:15:24;;;;;;;;;;;25.40;75.80;;;;;;5106177;27;43498;-78
2023/09/19 07:17:50;;;;;;;;;;;25.30;77.60;;;;;;5107886;27;42944;-77
2023/09/19 07:20:16;;;;;;;;;;;25.40;77.60;;;;;;5099983;27;43589;-79
2023/09/19 07:22:41;;;;;;;;;;;25.50;77.80;;;;;;5094652;27;43076;-78
2023/09/19 07:25:07;;;;;;;;;;;25.50;77.00;;;;;;5105892;27;42940;-79
2023/09/19 07:27:33;;;;;;;;;;;25.40;77.30;;;;;;5107302;27;43168;-79
2023/09/19 07:29:59;;;;;;;;;;;25.50;78.10;;;;;;5106748;27;43056;-78
2023/09/19 07:32:24;;;;;;;;;;;25.90;78.50;;;;;;5107687;27;42906;-77
2023/09/19 07:34:50;;;;;;;;;;;25.30;78.80;;;;;;5106308;27;43672;-77
2023/09/19 07:37:16;;;;;;;;;;;25.20;78.70;;;;;;5106955;27;42990;-79
2023/09/19 07:39:41;;;;;;;;;;;25.20;78.00;;;;;;5107181;27;42998;-80
2023/09/19 07:42:07;;;;;;;;;;;25.10;78.50;;;;;;5108350;27;42975;-78
2023/09/19 07:44:34;;;;;;;;;;;25.10;78.80;;;;;;5107603;27;42882;-78
2023/09/19 07:47:03;;;;;;;;;;;25.00;79.20;;;;;;5107999;27;42991;-79
2023/09/19 07:49:28;;;;;;;;;;;25.10;79.00;;;;;;5107098;27;43744;-78
2023/09/19 07:51:54;;;;;;;;;;;25.10;79.80;;;;;;5108194;27;43023;-79
2023/09/19 07:54:21;;;;;;;;;;;25.20;79.60;;;;;;5107262;27;45196;-79
2023/09/19 07:56:46;;;;;;;;;;;25.20;78.50;;;;;;5107094;27;43051;-78
2023/09/19 07:59:13;;;;;;;;;;;25.20;77.90;;;;;;5106105;27;43053;-80
2023/09/19 08:01:39;;;;;;;;;;;25.20;77.70;;;;;;5107565;27;42943;-78
2023/09/19 08:04:05;;;;;;;;;;;25.10;77.10;;;;;;5087953;27;43632;-78
2023/09/19 08:06:31;;;;;;;;;;;25.30;77.40;;;;;;5107839;27;42926;-76
2023/09/19 08:08:57;;;;;;;;;;;25.20;76.90;;;;;;5107667;27;42928;-79
2023/09/19 08:11:24;;;;;;;;;;;25.20;76.20;;;;;;5107833;27;42799;-78
2023/09/19 08:13:50;;;;;;;;;;;25.20;77.00;;;;;;5107174;27;43535;-80
2023/09/19 08:16:15;;;;;;;;;;;25.20;77.00;;;;;;5107231;27;42876;-79
2023/09/19 08:18:41;;;;;;;;;;;25.20;77.00;;;;;;5106387;27;43245;-79
2023/09/19 08:21:10;;;;;;;;;;;25.30;76.90;;;;;;5106985;27;42910;-81
2023/09/19 08:23:36;;;;;;;;;;;25.30;77.00;;;;;;5106641;27;42980;-79
2023/09/19 08:26:07;;;;;;;;;;;25.30;77.20;;;;;;5107027;27;42888;-79
2023/09/19 08:28:33;;;;;;;;;;;25.20;77.00;;;;;;5106825;27;44543;-80
2023/09/19 08:31:04;;;;;;;;;;;25.40;77.10;;;;;;5107192;27;42880;-78
2023/09/19 08:33:29;;;;;;;;;;;25.40;74.80;;;;;;5106103;27;43030;-80
2023/09/19 08:35:55;;;;;;;;;;;25.40;75.70;;;;;;5106777;27;43011;-79
2023/09/19 08:38:21;;;;;;;;;;;25.30;75.80;;;;;;5106477;27;43888;-79
2023/09/19 08:40:46;;;;;;;;;;;25.40;76.40;;;;;;5106939;27;42879;-79
2023/09/19 08:43:12;;;;;;;;;;;25.20;76.40;;;;;;5106323;27;43378;-78
2023/09/19 08:45:39;;;;;;;;;;;25.40;76.40;;;;;;5106688;27;43212;-78
2023/09/19 08:48:25;;;;;;;;;;;25.40;76.70;;;;;;5106703;27;43744;-79
2023/09/19 08:51:01;;;;;;;;;;;25.40;73.70;;;;;;5107004;27;42989;-79
2023/09/19 08:53:34;;;;;;;;;;;25.40;74.00;;;;;;5106581;27;43573;-78
2023/09/19 08:56:01;;;;;;;;;;;25.30;76.40;;;;;;5105837;27;42839;-79
2023/09/19 08:58:31;;;;;;;;;;;25.50;76.60;;;;;;5087944;27;44361;-79
2023/09/19 09:00:58;;;;;;;;;;;25.20;76.20;;;;;;5105943;27;43154;-79
2023/09/19 09:03:24;;;;;;;;;;;25.40;76.50;;;;;;5106074;27;43677;-78
2023/09/19 09:05:50;;;;;;;;;;;25.30;76.80;;;;;;5106091;27;42898;-80
2023/09/19 09:08:17;;;;;;;;;;;25.40;76.30;;;;;;5105670;27;43697;-78
2023/09/19 09:10:44;;;;;;;;;;;25.40;76.70;;;;;;5105978;27;42881;-77
2023/09/19 09:13:09;;;;;;;;;;;25.40;77.00;;;;;;5106683;27;42797;-78
2023/09/19 09:15:38;;;;;;;;;;;25.60;76.80;;;;;;5106175;27;43076;-79
2023/09/19 09:18:04;;;;;;;;;;;25.50;74.30;;;;;;5106406;27;43010;-78
2023/09/19 09:20:30;;;;;;;;;;;25.60;76.10;;;;;;5106332;27;42905;-78
2023/09/19 09:23:00;;;;;;;;;;;25.50;76.70;;;;;;5106485;27;43434;-77
2023/09/19 09:25:44;;;;;;;;;;;25.50;76.70;;;;;;5106248;27;42950;-80
2023/09/19 09:28:10;;;;;;;;;;;25.40;74.10;;;;;;5104041;27;43108;-80
2023/09/19 09:30:37;;;;;;;;;;;25.50;76.60;;;;;;5106311;27;42858;-78
2023/09/19 09:33:10;;;;;;;;;;;25.60;76.60;;;;;;5105503;27;42997;-78
2023/09/19 09:35:37;;;;;;;;;;;25.70;74.00;;;;;;5105755;27;42829;-79
2023/09/19 09:38:08;;;;;;;;;;;25.50;76.20;;;;;;5105741;27;43282;-78
2023/09/19 09:40:47;;;;;;;;;;;25.60;75.90;;;;;;5106182;27;43001;-78
2023/09/19 09:43:35;;;;;;;;;;;25.60;73.80;;;;;;5105103;27;43543;-78
2023/09/19 09:49:14;;;;;;;;;;;25.60;73.70;;;;;;5105182;27;43563;-79
2023/09/19 09:51:39;;;;;;;;;;;25.60;73.50;;;;;;5105595;27;42967;-78
2023/09/19 09:54:12;;;;;;;;;;;25.80;75.80;;;;;;5105154;27;43035;-78
2023/09/19 09:56:52;;;;;;;;;;;25.60;73.40;;;;;;5105800;27;42872;-78
2023/09/19 09:59:18;;;;;;;;;;;25.60;75.70;;;;;;5104341;27;43435;-79
2023/09/19 10:01:48;;;;;;;;;;;25.60;75.50;;;;;;5105693;27;43016;-79
2023/09/19 10:04:29;;;;;;;;;;;25.60;73.10;;;;;;5104838;27;43386;-78
2023/09/19 10:06:54;;;;;;;;;;;25.60;75.50;;;;;;5103922;27;42934;-78
2023/09/19 10:09:20;;;;;;;;;;;25.60;75.30;;;;;;5104708;27;42983;-78
2023/09/19 10:11:47;;;;;;;;;;;25.90;75.60;;;;;;5073793;27;42790;-78
2023/09/19 10:14:17;;;;;;;;;;;25.60;75.20;;;;;;5105418;27;42818;-78
2023/09/19 10:16:47;;;;;;;;;;;25.80;75.30;;;;;;5086678;27;43115;-78
2023/09/19 10:19:22;;;;;;;;;;;25.50;72.70;;;;;;5105465;27;43025;-77
2023/09/19 10:21:49;;;;;;;;;;;25.80;75.10;;;;;;5104871;27;42944;-77
2023/09/19 10:24:16;;;;;;;;;;;25.70;75.90;;;;;;5104969;27;43146;-77
2023/09/19 10:26:43;;;;;;;;;;;25.70;75.80;;;;;;5104792;27;42935;-78
2023/09/19 10:29:10;;;;;;;;;;;25.70;75.60;;;;;;5104858;27;43072;-77
2023/09/19 10:31:36;;;;;;;;;;;25.80;75.70;;;;;;5105085;27;43213;-78
2023/09/19 10:34:05;;;;;;;;;;;25.70;75.20;;;;;;5104895;27;43568;-78
2023/09/19 10:36:34;;;;;;;;;;;25.80;72.70;;;;;;5104804;27;43007;-79
2023/09/19 10:39:04;;;;;;;;;;;25.70;74.90;;;;;;5086437;27;43522;-78
2023/09/19 10:41:34;;;;;;;;;;;25.80;75.00;;;;;;5105212;27;42944;-78
2023/09/19 10:44:03;;;;;;;;;;;25.80;75.50;;;;;;5104366;27;43813;-78
2023/09/19 10:46:28;;;;;;;;;;;25.70;75.00;;;;;;5104538;27;42946;-79
2023/09/19 10:48:59;;;;;;;;;;;25.70;74.80;;;;;;5104487;27;42790;-77
2023/09/19 10:51:25;;;;;;;;;;;25.70;74.50;;;;;;5104241;27;43161;-78
2023/09/19 10:53:53;;;;;;;;;;;25.70;74.30;;;;;;5104564;27;42979;-78
2023/09/19 10:56:23;;;;;;;;;;;25.80;72.00;;;;;;5104237;27;42992;-78
2023/09/19 10:58:49;;;;;;;;;;;25.70;74.50;;;;;;5104605;27;42845;-78
2023/09/19 11:01:15;;;;;;;;;;;25.80;74.30;;;;;;5104736;27;42841;-79
2023/09/19 11:03:44;;;;;;;;;;;25.80;72.70;;;;;;5104604;27;43594;-79
2023/09/19 11:06:13;;;;;;;;;;;25.80;73.50;;;;;;5104818;27;42978;-79
2023/09/19 11:08:57;;;;;;;;;;;26.00;73.10;;;;;;5104577;27;43428;-77
2023/09/19 11:11:38;;;;;;;;;;;26.00;70.60;;;;;;5094796;27;42885;-78
2023/09/19 11:14:16;;;;;;;;;;;25.80;70.50;;;;;;5103398;27;44801;-77
2023/09/19 11:17:01;;;;;;;;;;;25.80;69.50;;;;;;5104212;27;42881;-78
2023/09/19 11:19:48;;;;;;;;;;;26.00;72.10;;;;;;5093613;27;43454;-79
2023/09/19 11:22:13;;;;;;;;;;;25.80;71.90;;;;;;5104002;27;43346;-78
2023/09/19 11:24:39;;;;;;;;;;;25.80;71.70;;;;;;5104146;27;42983;-78
2023/09/19 11:27:14;;;;;;;;;;;26.60;71.90;;;;;;5104048;27;42881;-78
2023/09/19 11:29:40;;;;;;;;;;;25.80;68.90;;;;;;5104791;27;42923;-79
2023/09/19 11:32:06;;;;;;;;;;;25.70;71.50;;;;;;5105002;27;42886;-78
2023/09/19 11:34:34;;;;;;;;;;;25.90;71.50;;;;;;5103420;27;43983;-77
2023/09/19 11:37:01;;;;;;;;;;;25.80;68.60;;;;;;5104254;27;42885;-78
2023/09/19 11:39:27;;;;;;;;;;;25.80;71.10;;;;;;5084586;27;44612;-78
2023/09/19 11:41:56;;;;;;;;;;;26.00;71.20;;;;;;5103968;27;42994;-78
2023/09/19 11:44:33;;;;;;;;;;;26.00;71.60;;;;;;5096185;27;43755;-77
2023/09/19 11:46:59;;;;;;;;;;;25.90;69.00;;;;;;5104558;27;42988;-79
2023/09/19 11:49:29;;;;;;;;;;;26.00;71.70;;;;;;5100140;27;43457;-78
2023/09/19 11:51:55;;;;;;;;;;;26.10;71.30;;;;;;5105978;27;42912;-80
2023/09/19 11:54:31;;;;;;;;;;;25.80;71.10;;;;;;5107345;27;42984;-78
2023/09/19 11:56:57;;;;;;;;;;;26.00;70.30;;;;;;5107310;27;43030;-79
2023/09/19 11:59:30;;;;;;;;;;;25.90;71.60;;;;;;5106475;27;44205;-79
2023/09/19 12:02:05;;;;;;;;;;;25.80;69.30;;;;;;5097209;27;43258;-80
2023/09/19 12:04:37;;;;;;;;;;;26.00;69.40;;;;;;5105989;27;42906;-78
2023/09/19 12:07:16;;;;;;;;;;;26.50;70.10;;;;;;5102007;27;43042;-78
2023/09/19 12:09:47;;;;;;;;;;;25.90;69.80;;;;;;5107239;27;43813;-80
2023/09/19 12:12:20;;;;;;;;;;;25.80;70.30;;;;;;5087602;27;42839;-80
2023/09/19 12:14:49;;;;;;;;;;;26.00;70.20;;;;;;5100945;27;43025;-81
2023/09/19 12:17:24;;;;;;;;;;;25.90;70.30;;;;;;5096595;27;43217;-79
2023/09/19 12:19:53;;;;;;;;;;;25.80;71.10;;;;;;5104708;27;43316;-78
2023/09/19 12:22:20;;;;;;;;;;;25.80;70.70;;;;;;5105402;27;42898;-80
2023/09/19 12:24:46;;;;;;;;;;;26.10;73.30;;;;;;5104459;27;43867;-78
2023/09/19 12:27:15;;;;;;;;;;;25.90;73.50;;;;;;5103823;27;43060;-79
2023/09/19 12:29:44;;;;;;;;;;;25.90;73.00;;;;;;5089184;27;43546;-78
2023/09/19 12:32:10;;;;;;;;;;;25.80;70.50;;;;;;5097497;27;43009;-78
2023/09/19 12:34:42;;;;;;;;;;;25.90;73.00;;;;;;5105924;27;43968;-78
2023/09/19 12:37:22;;;;;;;;;;;25.90;72.40;;;;;;5106672;27;42974;-80
2023/09/19 12:39:50;;;;;;;;;;;26.00;70.70;;;;;;5106557;27;42923;-76
2023/09/19 12:42:20;;;;;;;;;;;26.00;73.00;;;;;;5105862;27;43040;-78
2023/09/19 12:44:55;;;;;;;;;;;25.50;72.80;;;;;;5106548;27;43687;-79
2023/09/19 12:47:23;;;;;;;;;;;26.00;70.70;;;;;;5107160;27;42984;-78
2023/09/19 12:50:12;;;;;;;;;;;26.10;73.00;;;;;;5100763;27;43054;-79
2023/09/19 12:52:39;;;;;;;;;;;26.10;70.40;;;;;;5096802;27;42923;-79
2023/09/19 12:55:06;;;;;;;;;;;26.20;72.90;;;;;;5099818;27;42948;-78
2023/09/19 12:57:34;;;;;;;;;;;26.10;72.30;;;;;;5086959;27;43032;-79
2023/09/19 13:00:05;;;;;;;;;;;26.10;73.00;;;;;;5104641;27;43352;-79
2023/09/19 13:02:31;;;;;;;;;;;26.00;72.80;;;;;;5087003;27;43164;-79
2023/09/19 13:05:00;;;;;;;;;;;26.10;73.00;;;;;;5105755;27;43300;-79
2023/09/19 13:07:45;;;;;;;;;;;26.10;72.80;;;;;;5105758;27;43064;-79
2023/09/19 13:10:10;;;;;;;;;;;26.50;70.70;;;;;;5099688;27;43969;-79
2023/09/19 13:12:38;;;;;;;;;;;26.20;72.10;;;;;;5087442;27;42902;-78
2023/09/19 13:15:23;;;;;;;;;;;26.10;71.90;;;;;;5104635;27;44318;-79
2023/09/19 13:17:49;;;;;;;;;;;26.00;69.20;;;;;;5105249;27;43025;-78
2023/09/19 13:20:27;;;;;;;;;;;26.00;71.60;;;;;;5105339;27;42998;-79
2023/09/19 13:22:59;;;;;;;;;;;26.20;68.70;;;;;;5105531;27;42924;-78
2023/09/19 13:25:27;;;;;;;;;;;25.90;70.60;;;;;;5106266;27;43958;-78
2023/09/19 13:27:55;;;;;;;;;;;26.00;70.70;;;;;;5100750;27;43465;-79
2023/09/19 13:30:21;;;;;;;;;;;25.80;70.40;;;;;;5099104;27;42985;-79
2023/09/19 13:32:47;;;;;;;;;;;26.30;70.70;;;;;;5085826;27;43063;-78
2023/09/19 13:35:13;;;;;;;;;;;26.00;70.40;;;;;;5105138;27;43634;-79
2023/09/19 13:37:41;;;;;;;;;;;26.10;70.40;;;;;;5098843;27;42951;-79
2023/09/19 13:40:10;;;;;;;;;;;26.00;70.40;;;;;;5105620;27;43381;-78
2023/09/19 13:42:36;;;;;;;;;;;26.20;70.00;;;;;;5105555;27;42882;-79
2023/09/19 13:45:03;;;;;;;;;;;26.10;70.10;;;;;;5105654;27;43339;-78
2023/09/19 13:47:29;;;;;;;;;;;26.30;69.50;;;;;;5105699;27;43047;-78
2023/09/19 13:49:54;;;;;;;;;;;26.00;69.90;;;;;;5103764;27;42835;-80
2023/09/19 13:52:20;;;;;;;;;;;25.80;68.50;;;;;;5095492;27;42996;-79
2023/09/19 13:54:45;;;;;;;;;;;26.20;69.10;;;;;;5100687;27;43163;-79
2023/09/19 13:57:11;;;;;;;;;;;26.10;68.80;;;;;;5105413;27;42939;-78
2023/09/19 13:59:37;;;;;;;;;;;26.00;69.30;;;;;;5105792;27;43396;-79
2023/09/19 14:02:03;;;;;;;;;;;26.00;69.50;;;;;;5105351;27;42894;-79
2023/09/19 14:04:31;;;;;;;;;;;25.30;69.00;;;;;;5103728;27;42922;-78
2023/09/19 14:06:57;;;;;;;;;;;26.10;69.50;;;;;;5086154;27;42961;-78
2023/09/19 14:09:24;;;;;;;;;;;26.00;70.60;;;;;;5094770;27;43061;-78
2023/09/19 14:11:52;;;;;;;;;;;26.10;70.40;;;;;;5100162;27;43039;-79
2023/09/19 14:14:18;;;;;;;;;;;26.00;71.30;;;;;;5097232;27;42835;-78
2023/09/19 14:16:44;;;;;;;;;;;26.00;71.00;;;;;;5105609;27;42995;-77
2023/09/19 14:19:09;;;;;;;;;;;26.10;70.70;;;;;;5085777;27;44390;-80
2023/09/19 14:21:36;;;;;;;;;;;26.10;71.70;;;;;;5100639;27;43058;-79
2023/09/19 14:24:02;;;;;;;;;;;26.10;71.70;;;;;;5100635;27;43041;-79